createdAt,value
2018-06-21T00:04:48.092Z,35.10
2018-06-21T00:07:31.223Z,34.59
2018-06-21T00:13:22.134Z,35.41
2018-06-21T00:16:27.433Z,35.92
2018-06-21T00:19:07.036Z,35.94
2018-06-21T00:21:46.717Z,36.40
2018-06-21T00:24:27.990Z,36.63
2018-06-21T00:30:48.241Z,37.44
2018-06-21T00:37:33.496Z,38.27
2018-06-21T00:43:28.894Z,38.04
2018-06-21T00:46:17.182Z,38.24
2018-06-21T00:48:56.609Z,38.38
2018-06-21T00:51:51.068Z,38.62
2018-06-21T00:54:31.459Z,38.35
2018-06-21T00:57:13.321Z,38.85
2018-06-21T00:59:54.777Z,38.69
2018-06-21T01:02:35.679Z,39.08
2018-06-21T01:05:14.310Z,38.71
2018-06-21T01:08:02.254Z,39.43
2018-06-21T01:10:46.650Z,39.28
2018-06-21T01:13:30.648Z,39.59
2018-06-21T01:16:10.247Z,39.92
2018-06-21T01:18:54.197Z,39.61
2018-06-21T01:21:37.449Z,39.54
2018-06-21T01:24:18.493Z,39.79
2018-06-21T01:26:55.827Z,40.70
2018-06-21T01:29:33.583Z,40.00
2018-06-21T01:32:12.360Z,40.34
2018-06-21T01:34:50.883Z,39.97
2018-06-21T01:37:34.602Z,40.52
2018-06-21T01:40:11.723Z,40.67
2018-06-21T01:42:48.014Z,40.08
2018-06-21T01:45:36.102Z,40.72
2018-06-21T01:48:19.159Z,41.15
2018-06-21T01:53:44.792Z,42.09
2018-06-21T01:56:30.587Z,41.78
2018-06-21T01:59:10.133Z,41.66
2018-06-21T02:01:57.339Z,41.14
2018-06-21T02:04:40.011Z,41.53
2018-06-21T02:07:22.765Z,41.72
2018-06-21T02:10:01.186Z,41.60
2018-06-21T02:12:45.381Z,42.15
2018-06-21T02:15:27.216Z,41.97
2018-06-21T02:18:11.976Z,42.67
2018-06-21T02:20:56.099Z,41.99
2018-06-21T02:23:40.814Z,42.52
2018-06-21T02:26:30.208Z,42.41
2018-06-21T02:29:13.005Z,42.39
2018-06-21T02:31:50.362Z,42.46
2018-06-21T02:34:31.903Z,42.45
2018-06-21T02:37:14.992Z,41.86
2018-06-21T02:40:12.734Z,41.39
2018-06-21T02:42:58.656Z,42.51
2018-06-21T02:45:40.827Z,42.49
2018-06-21T02:48:25.798Z,42.05
2018-06-21T02:51:08.919Z,42.13
2018-06-21T02:53:54.995Z,42.48
2018-06-21T02:56:37.946Z,42.53
2018-06-21T02:59:21.184Z,42.34
2018-06-21T03:02:07.857Z,42.02
2018-06-21T03:04:48.449Z,42.11
2018-06-21T03:07:29.662Z,42.69
2018-06-21T03:10:09.162Z,42.42
2018-06-21T03:12:49.084Z,42.59
2018-06-21T03:15:27.339Z,42.76
2018-06-21T03:18:08.004Z,42.35
2018-06-21T03:20:46.618Z,42.48
2018-06-21T03:23:28.228Z,43.22
2018-06-21T03:26:17.544Z,42.65
2018-06-21T03:29:01.042Z,43.60
2018-06-21T03:31:44.086Z,43.46
2018-06-21T03:34:20.054Z,44.08
2018-06-21T03:37:05.009Z,43.71
2018-06-21T03:39:45.546Z,43.46
2018-06-21T03:42:26.525Z,43.52
2018-06-21T03:44:59.333Z,43.82
2018-06-21T03:47:30.985Z,44.37
2018-06-21T03:50:03.466Z,43.70
2018-06-21T03:52:34.965Z,43.80
2018-06-21T03:55:07.015Z,44.01
2018-06-21T03:57:38.393Z,43.73
2018-06-21T04:00:09.800Z,43.57
2018-06-21T04:02:43.163Z,42.80
2018-06-21T04:05:14.571Z,41.70
2018-06-21T04:07:45.670Z,41.34
2018-06-21T04:10:17.063Z,39.90
2018-06-21T04:12:49.187Z,39.24
2018-06-21T04:15:20.674Z,38.66
2018-06-21T04:17:52.199Z,38.33
2018-06-21T04:20:23.591Z,36.17
2018-06-21T04:22:57.805Z,35.67
2018-06-21T04:25:30.751Z,35.27
2018-06-21T04:28:02.216Z,34.10
2018-06-21T04:30:34.948Z,33.98
2018-06-21T04:33:07.115Z,34.04
2018-06-21T04:35:39.500Z,33.42
2018-06-21T04:38:13.763Z,34.00
2018-06-21T04:40:48.695Z,33.16
2018-06-21T04:43:24.114Z,33.43
2018-06-21T04:45:56.439Z,32.56
2018-06-21T04:48:30.447Z,30.89
2018-06-21T04:51:03.740Z,30.80
2018-06-21T04:53:35.113Z,30.34
2018-06-21T04:56:09.236Z,29.93
2018-06-21T04:58:42.247Z,29.59
2018-06-21T05:01:15.028Z,29.58
2018-06-21T05:03:46.423Z,29.88
2018-06-21T05:06:19.313Z,29.28
2018-06-21T05:08:52.375Z,30.38
2018-06-21T05:11:23.966Z,29.99
2018-06-21T05:13:56.211Z,29.01
2018-06-21T05:16:29.107Z,29.80
2018-06-21T05:19:00.550Z,29.63
2018-06-21T05:21:35.021Z,29.13
2018-06-21T05:24:09.025Z,28.87
2018-06-21T05:26:42.056Z,28.55
2018-06-21T05:29:14.683Z,27.90
2018-06-21T05:31:46.047Z,27.76
2018-06-21T05:34:18.791Z,28.08
2018-06-21T05:36:50.785Z,27.72
2018-06-21T05:39:22.243Z,26.95
2018-06-21T05:41:54.368Z,26.54
2018-06-21T05:44:27.909Z,26.06
2018-06-21T05:46:59.384Z,25.86
2018-06-21T05:49:31.076Z,26.35
2018-06-21T05:52:02.444Z,26.36
2018-06-21T05:54:33.618Z,26.66
2018-06-21T05:57:05.426Z,27.34
2018-06-21T05:59:37.764Z,27.27
2018-06-21T06:02:09.890Z,26.69
2018-06-21T06:04:41.371Z,25.87
2018-06-21T06:07:16.360Z,26.22
2018-06-21T06:09:52.982Z,24.97
2018-06-21T06:12:25.590Z,26.39
2018-06-21T06:15:07.760Z,26.70
2018-06-21T06:17:39.112Z,27.46
2018-06-21T06:20:15.626Z,26.53
2018-06-21T06:22:52.968Z,27.38
2018-06-21T06:25:24.963Z,27.95
2018-06-21T06:28:00.001Z,27.79
2018-06-21T06:30:35.414Z,27.58
2018-06-21T06:33:07.846Z,27.39
2018-06-21T06:35:40.418Z,27.33
2018-06-21T06:38:12.674Z,26.03
2018-06-21T06:40:44.075Z,26.14
2018-06-21T06:43:16.143Z,26.99
2018-06-21T06:45:49.662Z,24.88
2018-06-21T06:48:25.806Z,24.55
2018-06-21T06:50:58.338Z,23.26
2018-06-21T06:53:32.288Z,22.57
2018-06-21T06:58:53.180Z,22.46
2018-06-21T07:01:40.444Z,22.23
2018-06-21T07:04:23.655Z,22.39
2018-06-21T07:07:03.645Z,23.05
2018-06-21T07:09:43.114Z,23.78
2018-06-21T07:12:17.966Z,23.28
2018-06-21T07:14:57.119Z,24.41
2018-06-21T07:17:36.667Z,22.93
2018-06-21T07:20:14.667Z,23.82
2018-06-21T07:23:06.360Z,23.14
2018-06-21T07:25:44.664Z,23.05
2018-06-21T07:28:21.306Z,23.91
2018-06-21T07:31:02.839Z,24.25
2018-06-21T07:33:50.735Z,23.34
2018-06-21T07:36:33.828Z,24.71
2018-06-21T07:39:16.902Z,25.27
2018-06-21T07:42:04.553Z,26.54
2018-06-21T07:44:48.429Z,25.63
2018-06-21T07:47:22.722Z,26.36
2018-06-21T07:50:07.589Z,26.38
2018-06-21T07:52:43.685Z,26.16
2018-06-21T07:55:19.408Z,25.32
2018-06-21T07:57:53.803Z,25.65
2018-06-21T08:03:50.088Z,25.17
2018-06-21T08:06:43.640Z,24.52
2018-06-21T08:13:22.736Z,23.76
2018-06-21T08:15:59.873Z,22.52
2018-06-21T08:21:56.803Z,22.65
2018-06-21T08:24:36.735Z,22.25
2018-06-21T08:27:22.242Z,21.96
2018-06-21T08:30:06.419Z,24.92
2018-06-21T08:33:03.313Z,25.82
2018-06-21T08:35:40.991Z,25.39
2018-06-21T08:38:16.763Z,25.28
2018-06-21T08:40:57.177Z,25.88
2018-06-21T08:43:41.743Z,24.81
2018-06-21T08:46:26.578Z,24.89
2018-06-21T08:49:03.982Z,26.37
2018-06-21T08:51:44.248Z,26.31
2018-06-21T08:54:19.487Z,26.57
2018-06-21T08:56:56.356Z,27.49
2018-06-21T08:59:31.389Z,26.79
2018-06-21T09:02:20.382Z,26.23
2018-06-21T09:05:37.442Z,28.27
2018-06-21T09:08:20.947Z,28.73
2018-06-21T09:11:03.304Z,27.05
2018-06-21T09:13:43.946Z,27.99
2018-06-21T09:16:34.422Z,28.33
2018-06-21T09:19:25.436Z,29.69
2018-06-21T09:22:04.657Z,29.80
2018-06-21T09:24:46.659Z,30.29
2018-06-21T09:27:50.790Z,29.63
2018-06-21T09:30:41.494Z,28.92
2018-06-21T09:33:35.387Z,26.56
2018-06-21T09:36:34.334Z,26.66
2018-06-21T09:39:24.344Z,27.27
2018-06-21T09:42:22.836Z,28.03
2018-06-21T09:56:49.540Z,31.30
2018-06-21T10:03:05.916Z,32.98
2018-06-21T10:05:51.048Z,32.15
2018-06-21T10:08:44.263Z,32.01
2018-06-21T10:11:31.850Z,32.40
2018-06-21T10:20:57.981Z,34.48
2018-06-21T10:23:50.899Z,33.69
2018-06-21T10:26:40.453Z,33.89
2018-06-21T10:29:37.696Z,33.33
2018-06-21T10:32:31.079Z,32.88
2018-06-21T10:35:21.098Z,32.46
2018-06-21T10:38:03.103Z,32.30
2018-06-21T10:44:05.165Z,33.17
2018-06-21T10:46:46.311Z,32.71
2018-06-21T10:52:54.218Z,33.09
2018-06-21T10:58:42.800Z,32.64
2018-06-21T11:08:50.049Z,33.34
2018-06-21T11:14:59.416Z,32.65
2018-06-21T11:22:52.914Z,29.99
2018-06-21T11:25:34.405Z,28.90
2018-06-21T11:28:50.734Z,28.89
2018-06-21T11:37:41.026Z,27.87
2018-06-21T11:40:21.527Z,26.96
2018-06-21T11:43:26.611Z,26.29
2018-06-21T11:46:14.012Z,26.90
2018-06-21T11:52:40.342Z,26.55
2018-06-21T11:55:36.246Z,25.94
2018-06-21T11:58:47.352Z,27.54
2018-06-21T12:05:08.222Z,26.15
2018-06-21T12:07:42.073Z,25.01
2018-06-21T12:10:29.813Z,23.46
2018-06-21T12:13:05.028Z,23.50
2018-06-21T12:15:37.319Z,23.33
2018-06-21T12:18:10.839Z,23.46
2018-06-21T12:20:44.755Z,23.07
2018-06-21T12:23:17.445Z,23.50
2018-06-21T12:25:50.437Z,21.95
2018-06-21T12:28:28.264Z,22.53
2018-06-21T12:31:05.427Z,22.53
2018-06-21T12:33:51.976Z,22.12
2018-06-21T12:36:30.190Z,22.27
2018-06-21T12:49:46.528Z,19.08
2018-06-21T12:52:28.803Z,20.40
2018-06-21T12:55:03.542Z,20.55
2018-06-21T13:01:39.638Z,21.30
2018-06-21T13:04:13.440Z,21.55
2018-06-21T13:07:08.747Z,21.46
2018-06-21T13:09:59.725Z,22.07
2018-06-21T13:12:44.826Z,20.06
2018-06-21T13:16:30.575Z,19.37
2018-06-21T13:19:04.695Z,19.73
2018-06-21T13:21:43.048Z,19.07
2018-06-21T13:24:26.833Z,19.48
2018-06-21T13:27:05.377Z,20.11
2018-06-21T13:29:42.748Z,19.76
2018-06-21T13:32:16.560Z,19.60
2018-06-21T13:34:55.690Z,19.54
2018-06-21T13:37:32.083Z,19.73
2018-06-21T13:40:06.938Z,19.89
2018-06-21T13:42:44.800Z,18.54
2018-06-21T13:45:21.277Z,18.08
2018-06-21T13:48:03.260Z,18.56
2018-06-21T13:50:37.937Z,18.60
2018-06-21T13:53:13.424Z,17.89
2018-06-21T13:55:49.321Z,18.57
2018-06-21T13:58:25.328Z,17.74
2018-06-21T14:00:59.311Z,17.81
2018-06-21T14:03:33.619Z,18.09
2018-06-21T14:06:09.462Z,17.08
2018-06-21T14:08:47.410Z,16.91
2018-06-21T14:11:26.520Z,15.98
2018-06-21T14:14:07.347Z,17.10
2018-06-21T14:16:45.582Z,17.36
2018-06-21T14:19:19.489Z,16.05
2018-06-21T14:24:37.909Z,15.64
2018-06-21T14:27:16.044Z,15.08
2018-06-21T14:29:51.986Z,15.78
2018-06-21T14:32:27.473Z,16.91
2018-06-21T14:35:15.021Z,15.82
2018-06-21T14:37:53.418Z,16.75
2018-06-21T14:40:29.329Z,16.57
2018-06-21T14:43:09.582Z,16.86
2018-06-21T14:45:43.272Z,16.77
2018-06-21T14:48:16.529Z,16.07
2018-06-21T14:50:53.854Z,15.80
2018-06-21T14:53:27.812Z,16.19
2018-06-21T14:56:11.396Z,16.07
2018-06-21T14:59:00.568Z,16.76
2018-06-21T15:01:34.793Z,16.70
2018-06-21T15:04:10.927Z,15.58
2018-06-21T15:06:46.595Z,16.05
2018-06-21T15:09:23.308Z,15.76
2018-06-21T15:11:59.782Z,15.11
2018-06-21T15:14:34.255Z,15.67
2018-06-21T15:17:10.445Z,16.33
2018-06-21T15:19:45.908Z,16.56
2018-06-21T15:22:25.485Z,16.11
2018-06-21T15:25:03.777Z,15.71
2018-06-21T15:27:39.477Z,16.36
2018-06-21T15:30:19.378Z,16.19
2018-06-21T15:32:58.624Z,15.88
2018-06-21T15:35:35.102Z,15.89
2018-06-21T15:38:09.532Z,16.18
2018-06-21T15:40:43.310Z,16.25
2018-06-21T15:43:19.391Z,16.15
2018-06-21T15:45:52.767Z,16.41
2018-06-21T15:48:27.667Z,15.82
2018-06-21T15:51:05.388Z,15.83
2018-06-21T15:53:39.529Z,15.70
2018-06-21T15:56:19.789Z,16.53
2018-06-21T15:58:53.056Z,15.40
2018-06-21T16:01:29.374Z,16.00
2018-06-21T16:04:05.339Z,16.76
2018-06-21T16:06:43.167Z,16.83
2018-06-21T16:09:20.568Z,16.98
2018-06-21T16:11:55.428Z,16.93
2018-06-21T16:14:30.280Z,17.63
2018-06-21T16:17:06.934Z,16.48
2018-06-21T16:19:41.570Z,17.40
2018-06-21T16:22:17.525Z,16.78
2018-06-21T16:24:54.883Z,16.32
2018-06-21T16:27:28.361Z,15.99
2018-06-21T16:30:01.904Z,17.12
2018-06-21T16:32:38.954Z,17.33
2018-06-21T16:35:12.498Z,17.79
2018-06-21T16:37:49.303Z,17.43
2018-06-21T16:40:25.372Z,17.17
2018-06-21T16:43:02.592Z,17.52
2018-06-21T16:45:36.184Z,17.66
2018-06-21T16:51:10.479Z,16.99
2018-06-21T16:53:49.861Z,17.66
2018-06-21T16:56:23.245Z,17.18
2018-06-21T16:59:00.063Z,16.94
2018-06-21T17:01:35.738Z,17.20
2018-06-21T17:04:11.577Z,17.79
2018-06-21T17:06:45.793Z,17.79
2018-06-21T17:09:19.744Z,18.09
2018-06-21T17:11:53.630Z,17.70
2018-06-21T17:14:27.978Z,17.98
2018-06-21T17:17:07.298Z,18.44
2018-06-21T17:19:40.874Z,17.44
2018-06-21T17:22:20.962Z,17.11
2018-06-21T17:24:54.742Z,17.32
2018-06-21T17:27:30.452Z,17.11
2018-06-21T17:30:05.315Z,17.70
2018-06-21T17:32:40.220Z,17.90
2018-06-21T17:35:14.109Z,18.10
2018-06-21T17:37:47.445Z,18.26
2018-06-21T17:40:24.768Z,18.12
2018-06-21T17:42:59.863Z,17.92
2018-06-21T17:45:35.860Z,18.98
2018-06-21T17:48:10.407Z,18.62
2018-06-21T17:50:47.276Z,19.08
2018-06-21T17:53:23.407Z,18.99
2018-06-21T17:55:58.281Z,18.46
2018-06-21T17:58:33.934Z,18.60
2018-06-21T18:01:07.893Z,19.82
2018-06-21T18:03:41.470Z,19.70
2018-06-21T18:06:16.668Z,19.45
2018-06-21T18:08:50.468Z,19.96
2018-06-21T18:11:25.731Z,19.83
2018-06-21T18:14:00.179Z,20.71
2018-06-21T18:19:17.832Z,21.39
2018-06-21T18:21:52.370Z,22.45
2018-06-21T18:24:34.127Z,22.99
2018-06-21T18:27:11.033Z,23.14
2018-06-21T18:29:45.711Z,23.15
2018-06-21T18:32:19.909Z,23.39
2018-06-21T18:34:54.409Z,23.42
2018-06-21T18:40:10.851Z,23.78
2018-06-21T18:42:49.787Z,24.83
2018-06-21T18:45:26.264Z,24.86
2018-06-21T18:47:59.548Z,25.13
2018-06-21T18:50:34.586Z,24.82
2018-06-21T18:53:11.491Z,25.26
2018-06-21T18:55:48.789Z,25.09
2018-06-21T18:58:24.520Z,25.78
2018-06-21T19:01:09.360Z,25.06
2018-06-21T19:03:44.309Z,25.59
2018-06-21T19:06:25.529Z,25.51
2018-06-21T19:09:11.221Z,26.10
2018-06-21T19:11:50.969Z,26.25
2018-06-21T19:14:24.922Z,26.62
2018-06-21T19:16:58.689Z,26.65
2018-06-21T19:19:32.860Z,26.85
2018-06-21T19:22:12.155Z,26.33
2018-06-21T19:24:48.548Z,26.42
2018-06-21T19:27:22.408Z,27.34
2018-06-21T19:29:58.217Z,27.60
2018-06-21T19:32:33.661Z,27.44
2018-06-21T19:37:03.705Z,27.36
2018-06-21T19:39:51.203Z,27.75
2018-06-21T19:42:42.256Z,28.25
2018-06-21T19:45:22.329Z,28.72
2018-06-21T19:48:00.282Z,28.27
2018-06-21T19:50:33.640Z,28.19
2018-06-21T19:53:08.532Z,27.93
2018-06-21T19:55:43.359Z,28.44
2018-06-21T19:58:26.813Z,28.73
2018-06-21T20:01:04.213Z,29.49
2018-06-21T20:03:38.990Z,28.58
2018-06-21T20:06:13.124Z,29.18
2018-06-21T20:08:49.232Z,29.08
2018-06-21T20:11:36.281Z,29.89
2018-06-21T20:14:17.132Z,29.47
2018-06-21T20:16:53.371Z,29.68
2018-06-21T20:19:38.847Z,29.84
2018-06-21T20:22:14.265Z,30.20
2018-06-21T20:24:49.319Z,30.24
2018-06-21T20:27:36.747Z,30.35
2018-06-21T20:30:13.284Z,30.77
2018-06-21T20:32:49.439Z,30.42
2018-06-21T20:35:25.945Z,30.68
2018-06-21T20:38:03.930Z,30.72
2018-06-21T20:40:45.054Z,30.42
2018-06-21T20:43:20.164Z,30.84
2018-06-21T20:45:59.610Z,30.86
2018-06-21T20:48:35.365Z,30.91
2018-06-21T20:51:08.995Z,31.42
2018-06-21T20:53:43.298Z,30.92
2018-06-21T20:56:20.064Z,31.49
2018-06-21T20:59:07.707Z,32.24
2018-06-21T21:01:55.578Z,31.32
2018-06-21T21:05:22.578Z,31.97
2018-06-21T21:08:25.462Z,32.07
2018-06-21T21:11:05.635Z,31.57
2018-06-21T21:13:46.571Z,32.14
2018-06-21T21:16:25.170Z,32.51
2018-06-21T21:19:01.972Z,32.69
2018-06-21T21:21:37.632Z,32.60
2018-06-21T21:24:17.332Z,33.19
2018-06-21T21:26:55.769Z,33.37
2018-06-21T21:29:32.342Z,33.76
2018-06-21T21:32:08.037Z,33.54
2018-06-21T21:34:44.181Z,33.14
2018-06-21T21:37:27.535Z,34.05
2018-06-21T21:40:09.989Z,34.10
2018-06-21T21:42:45.874Z,33.38
2018-06-21T21:45:20.271Z,33.63
2018-06-21T21:47:56.355Z,34.36
2018-06-21T21:50:31.134Z,33.36
2018-06-21T21:53:14.646Z,33.80
2018-06-21T21:55:50.579Z,34.96
2018-06-21T21:58:32.423Z,34.78
2018-06-21T22:01:08.308Z,35.05
2018-06-21T22:03:44.282Z,34.23
2018-06-21T22:06:21.712Z,34.98
2018-06-21T22:09:01.623Z,35.07
2018-06-21T22:11:41.761Z,36.10
2018-06-21T22:14:19.535Z,35.92
2018-06-21T22:17:00.632Z,36.29
2018-06-21T22:19:33.901Z,36.03
2018-06-21T22:22:10.137Z,35.72
2018-06-21T22:24:43.472Z,36.19
2018-06-21T22:27:18.570Z,36.06
2018-06-21T22:29:55.275Z,36.68
2018-06-21T22:32:34.692Z,36.16
2018-06-21T22:35:09.356Z,37.00
2018-06-21T22:37:47.906Z,35.90
2018-06-21T22:40:32.435Z,36.04
2018-06-21T22:43:10.432Z,36.10
2018-06-21T22:45:46.747Z,36.90
2018-06-21T22:48:26.293Z,36.59
2018-06-21T22:51:02.462Z,36.41
2018-06-21T22:53:37.283Z,36.54
2018-06-21T22:56:13.329Z,36.89
2018-06-21T22:58:49.354Z,37.12
2018-06-21T23:01:29.199Z,37.45
2018-06-21T23:04:05.082Z,37.50
2018-06-21T23:06:41.415Z,37.72
2018-06-21T23:09:17.028Z,37.56
2018-06-21T23:11:55.465Z,37.42
2018-06-21T23:14:34.779Z,37.98
2018-06-21T23:17:13.485Z,37.15
2018-06-21T23:20:01.844Z,37.55
2018-06-21T23:22:37.722Z,37.99
2018-06-21T23:25:12.489Z,37.18
2018-06-21T23:27:51.058Z,38.10
2018-06-21T23:30:28.439Z,37.59
2018-06-21T23:33:09.437Z,38.09
2018-06-21T23:35:54.484Z,37.85
2018-06-21T23:38:28.461Z,37.91
2018-06-21T23:41:02.388Z,38.00
2018-06-21T23:43:37.212Z,37.72
2018-06-21T23:46:11.691Z,37.61
2018-06-21T23:48:51.707Z,38.16
2018-06-21T23:51:27.044Z,38.71
2018-06-21T23:54:00.601Z,38.31
2018-06-21T23:56:35.398Z,38.11
2018-06-21T23:59:11.439Z,38.52
